createdAt,value
2023-01-11T00:00:32.366Z,3.97
2023-01-11T00:03:02.424Z,3.00
2023-01-11T00:05:29.711Z,2.20
2023-01-11T00:07:57.076Z,1.03
2023-01-11T00:10:24.881Z,1.20
2023-01-11T00:12:52.144Z,3.17
2023-01-11T00:15:19.511Z,3.80
2023-01-11T00:17:47.413Z,6.17
2023-01-11T00:20:14.836Z,36.30
2023-01-11T00:22:42.156Z,18.20
2023-01-11T00:25:09.884Z,12.87
2023-01-11T00:27:37.230Z,8.63
2023-01-11T00:30:04.944Z,5.33
2023-01-11T00:32:32.619Z,6.30
2023-01-11T00:34:59.870Z,5.73
2023-01-11T00:37:27.124Z,5.20
2023-01-11T00:39:54.785Z,4.77
2023-01-11T00:42:40.649Z,4.70
2023-01-11T00:45:27.287Z,6.97
2023-01-11T00:47:57.636Z,4.73
2023-01-11T00:50:26.403Z,4.60
2023-01-11T00:52:53.701Z,4.13
2023-01-11T00:55:21.085Z,5.60
2023-01-11T00:57:48.888Z,3.67
2023-01-11T01:00:16.575Z,3.03
2023-01-11T01:02:43.948Z,5.03
2023-01-11T01:05:11.960Z,5.23
2023-01-11T01:07:39.536Z,7.50
2023-01-11T01:10:08.111Z,5.77
2023-01-11T01:12:56.393Z,7.05
2023-01-11T01:15:24.090Z,7.73
2023-01-11T01:17:56.117Z,8.80
2023-01-11T01:20:24.479Z,6.97
2023-01-11T01:22:52.287Z,5.32
2023-01-11T01:25:19.992Z,5.93
2023-01-11T01:27:47.315Z,5.40
2023-01-11T01:30:15.208Z,4.63
2023-01-11T01:32:42.646Z,3.43
2023-01-11T01:35:10.499Z,9.07
2023-01-11T01:37:38.274Z,6.80
2023-01-11T01:40:06.790Z,7.10
2023-01-11T01:42:34.122Z,4.78
2023-01-11T01:45:03.898Z,2.77
2023-01-11T01:47:53.164Z,3.77
2023-01-11T01:50:36.357Z,3.40
2023-01-11T01:53:08.825Z,5.00
2023-01-11T01:55:41.264Z,7.10
2023-01-11T01:58:14.016Z,2.47
2023-01-11T02:00:44.429Z,28.93
2023-01-11T02:03:17.555Z,5.07
2023-01-11T02:05:46.059Z,0.70
2023-01-11T02:08:22.742Z,2.43
2023-01-11T02:10:51.553Z,2.20
2023-01-11T02:13:20.715Z,14.57
2023-01-11T02:16:07.863Z,9.95
2023-01-11T02:18:37.508Z,6.27
2023-01-11T02:21:25.817Z,6.60
2023-01-11T02:24:21.331Z,7.78
2023-01-11T02:27:03.851Z,7.67
2023-01-11T02:29:43.108Z,8.07
2023-01-11T02:32:29.101Z,7.80
2023-01-11T02:35:17.051Z,5.30
2023-01-11T02:38:01.903Z,5.80
2023-01-11T02:41:08.054Z,5.97
2023-01-11T02:44:05.001Z,7.60
2023-01-11T02:46:39.856Z,6.50
2023-01-11T02:49:18.966Z,7.13
2023-01-11T02:52:13.166Z,6.63
2023-01-11T02:54:48.171Z,7.93
2023-01-11T02:57:17.225Z,8.23
2023-01-11T02:59:49.322Z,18.30
2023-01-11T03:02:19.775Z,17.13
2023-01-11T03:04:47.225Z,9.00
2023-01-11T03:07:45.911Z,8.20
2023-01-11T03:10:24.614Z,4.95
2023-01-11T03:13:07.252Z,6.15
2023-01-11T03:15:37.999Z,2.80
2023-01-11T03:18:42.836Z,2.50
2023-01-11T03:21:25.746Z,1.57
2023-01-11T03:24:20.081Z,2.30
2023-01-11T03:26:59.761Z,3.17
2023-01-11T03:32:27.241Z,2.20
2023-01-11T03:35:01.744Z,2.80
2023-01-11T03:38:02.169Z,7.10
2023-01-11T03:40:40.321Z,4.07
2023-01-11T03:43:12.867Z,5.03
2023-01-11T03:46:02.943Z,4.33
2023-01-11T03:48:46.697Z,4.00
2023-01-11T03:51:17.735Z,3.43
2023-01-11T03:53:48.518Z,3.07
2023-01-11T03:56:20.306Z,2.63
2023-01-11T03:58:49.080Z,2.97
2023-01-11T04:01:16.939Z,4.10
2023-01-11T04:03:44.677Z,3.60
2023-01-11T04:06:12.619Z,3.93
2023-01-11T04:08:39.971Z,7.17
2023-01-11T04:11:07.733Z,10.17
2023-01-11T04:13:35.169Z,7.90
2023-01-11T04:16:03.039Z,6.17
2023-01-11T04:18:30.743Z,4.90
2023-01-11T04:20:58.017Z,5.07
2023-01-11T04:23:25.525Z,4.90
2023-01-11T04:25:53.641Z,6.33
2023-01-11T04:28:21.021Z,4.13
2023-01-11T04:30:48.550Z,5.00
2023-01-11T04:33:16.481Z,4.43
2023-01-11T04:35:44.821Z,4.10
2023-01-11T04:38:12.419Z,5.30
2023-01-11T04:40:40.125Z,4.13
2023-01-11T04:43:07.680Z,3.63
2023-01-11T04:45:35.045Z,3.63
2023-01-11T04:48:04.119Z,10.40
2023-01-11T04:50:31.418Z,7.83
2023-01-11T04:52:59.779Z,13.90
2023-01-11T04:55:27.903Z,10.73
2023-01-11T04:57:55.333Z,11.87
2023-01-11T05:00:22.641Z,14.40
2023-01-11T05:02:50.362Z,16.60
2023-01-11T05:05:17.675Z,22.67
2023-01-11T05:07:45.216Z,19.80
2023-01-11T05:10:13.083Z,12.93
2023-01-11T05:12:40.450Z,11.13
2023-01-11T05:15:08.576Z,10.00
2023-01-11T05:17:36.187Z,7.78
2023-01-11T05:20:04.687Z,11.67
2023-01-11T05:22:32.099Z,10.38
2023-01-11T05:25:00.209Z,8.00
2023-01-11T05:27:27.490Z,6.90
2023-01-11T05:29:54.823Z,5.23
2023-01-11T05:32:22.509Z,4.93
2023-01-11T05:34:49.815Z,4.70
2023-01-11T05:37:17.121Z,4.00
2023-01-11T05:39:44.980Z,3.90
2023-01-11T05:42:12.254Z,4.20
2023-01-11T05:44:58.274Z,5.00
2023-01-11T05:47:25.914Z,5.10
2023-01-11T05:49:53.238Z,5.00
2023-01-11T05:52:20.523Z,5.57
2023-01-11T05:54:48.178Z,6.97
2023-01-11T05:57:15.437Z,9.73
2023-01-11T05:59:42.796Z,9.47
2023-01-11T06:02:10.518Z,10.07
2023-01-11T06:04:38.374Z,10.93
2023-01-11T06:07:06.999Z,24.80
2023-01-11T06:09:34.625Z,17.60
2023-01-11T06:12:02.475Z,19.07
2023-01-11T06:14:29.785Z,22.87
2023-01-11T06:16:57.227Z,24.77
2023-01-11T06:19:24.937Z,34.10
2023-01-11T06:21:53.522Z,41.50
2023-01-11T06:24:20.773Z,32.65
2023-01-11T06:26:48.460Z,41.57
2023-01-11T06:29:15.791Z,43.30
2023-01-11T06:31:43.161Z,60.90
2023-01-11T06:34:11.712Z,58.80
2023-01-11T06:36:39.300Z,60.03
2023-01-11T06:39:07.828Z,50.35
2023-01-11T06:41:35.550Z,40.47
2023-01-11T06:44:03.071Z,46.23
2023-01-11T06:46:30.416Z,39.63
2023-01-11T06:48:58.210Z,35.47
2023-01-11T06:51:25.549Z,29.37
2023-01-11T06:53:52.844Z,18.07
2023-01-11T06:56:20.643Z,15.77
2023-01-11T06:58:48.425Z,17.23
2023-01-11T07:01:21.298Z,16.50
2023-01-11T07:03:49.080Z,30.90
2023-01-11T07:06:16.488Z,20.90
2023-01-11T07:08:43.838Z,12.30
2023-01-11T07:11:11.863Z,12.33
2023-01-11T07:13:39.255Z,14.57
2023-01-11T07:16:07.989Z,18.40
2023-01-11T07:18:36.001Z,23.97
2023-01-11T07:21:03.434Z,25.10
2023-01-11T07:23:30.697Z,23.80
2023-01-11T07:25:58.329Z,23.67
2023-01-11T07:28:28.588Z,28.83
2023-01-11T07:30:59.317Z,31.03
2023-01-11T07:33:29.489Z,33.63
2023-01-11T07:35:59.259Z,29.20
2023-01-11T07:38:29.590Z,24.23
2023-01-11T07:40:57.102Z,24.10
2023-01-11T07:43:24.688Z,17.37
2023-01-11T07:45:53.460Z,11.83
2023-01-11T07:48:26.697Z,14.00
2023-01-11T07:50:55.105Z,7.07
2023-01-11T07:53:25.852Z,5.10
2023-01-11T07:55:55.929Z,3.87
2023-01-11T07:58:24.043Z,3.37
2023-01-11T08:00:51.695Z,3.93
2023-01-11T08:03:19.480Z,8.23
2023-01-11T08:05:51.992Z,9.13
2023-01-11T08:08:19.767Z,3.63
2023-01-11T08:10:47.143Z,2.80
2023-01-11T08:13:33.599Z,2.30
2023-01-11T08:16:01.772Z,3.10
2023-01-11T08:18:29.154Z,4.17
2023-01-11T08:20:56.755Z,2.70
2023-01-11T08:23:25.682Z,2.50
2023-01-11T08:25:56.942Z,2.77
2023-01-11T08:28:24.693Z,11.57
2023-01-11T08:30:53.068Z,3.27
2023-01-11T08:33:20.874Z,8.77
2023-01-11T08:35:48.726Z,5.77
2023-01-11T08:38:16.214Z,2.50
2023-01-11T08:40:43.703Z,6.00
2023-01-11T08:43:11.489Z,7.90
2023-01-11T08:45:38.873Z,7.00
2023-01-11T08:48:06.891Z,5.17
2023-01-11T08:50:34.679Z,3.50
2023-01-11T08:53:02.605Z,3.30
2023-01-11T08:55:31.027Z,2.73
2023-01-11T08:57:58.881Z,5.00
2023-01-11T09:00:26.180Z,4.87
2023-01-11T09:02:53.607Z,3.87
2023-01-11T09:05:21.394Z,3.67
2023-01-11T09:07:48.771Z,2.97
2023-01-11T09:10:16.279Z,3.50
2023-01-11T09:12:44.004Z,5.97
2023-01-11T09:15:11.764Z,3.60
2023-01-11T09:17:39.383Z,3.93
2023-01-11T09:20:07.615Z,4.00
2023-01-11T09:22:35.099Z,4.13
2023-01-11T09:25:02.820Z,4.40
2023-01-11T09:27:30.468Z,4.90
2023-01-11T09:29:59.138Z,4.12
2023-01-11T09:32:26.920Z,6.17
2023-01-11T09:37:26.206Z,5.70
2023-01-11T09:39:53.643Z,8.03
2023-01-11T09:42:35.995Z,6.97
2023-01-11T09:45:18.819Z,6.67
2023-01-11T09:47:52.750Z,6.30
2023-01-11T09:50:28.393Z,6.83
2023-01-11T09:53:08.435Z,7.57
2023-01-11T09:55:43.120Z,6.87
2023-01-11T09:58:42.467Z,6.73
2023-01-11T10:01:22.702Z,6.30
2023-01-11T10:04:22.952Z,6.57
2023-01-11T10:06:51.675Z,6.60
2023-01-11T10:18:37.855Z,7.30
2023-01-11T10:19:40.661Z,7.70
2023-01-11T10:22:19.833Z,8.37
2023-01-11T10:25:41.635Z,8.77
2023-01-11T10:28:24.670Z,9.20
2023-01-11T10:30:59.483Z,10.10
2023-01-11T10:33:57.651Z,7.80
2023-01-11T10:36:57.516Z,6.27
2023-01-11T10:40:19.155Z,8.40
2023-01-11T10:43:18.184Z,7.30
2023-01-11T10:46:01.671Z,9.80
2023-01-11T10:48:38.089Z,7.53
2023-01-11T10:51:27.373Z,7.60
2023-01-11T10:54:00.382Z,11.70
2023-01-11T10:57:03.225Z,6.90
2023-01-11T10:59:43.044Z,7.90
2023-01-11T11:02:34.306Z,6.63
2023-01-11T11:05:11.794Z,4.43
2023-01-11T11:08:17.768Z,4.77
2023-01-11T11:11:05.847Z,4.33
2023-01-11T11:13:58.819Z,3.67
2023-01-11T11:16:44.202Z,3.33
2023-01-11T11:19:17.450Z,4.03
2023-01-11T11:21:45.110Z,3.33
2023-01-11T11:24:27.971Z,4.53
2023-01-11T11:27:07.398Z,3.10
2023-01-11T11:29:42.872Z,3.60
2023-01-11T11:32:32.855Z,3.10
2023-01-11T11:35:02.354Z,3.50
2023-01-11T11:37:33.471Z,4.13
2023-01-11T11:40:01.152Z,4.97
2023-01-11T11:42:29.034Z,4.67
2023-01-11T11:45:15.132Z,4.13
2023-01-11T11:47:44.327Z,4.77
2023-01-11T11:50:42.441Z,4.37
2023-01-11T11:53:08.669Z,4.00
2023-01-11T11:55:36.273Z,4.40
2023-01-11T11:58:08.719Z,4.87
2023-01-11T12:00:45.919Z,5.27
2023-01-11T12:03:16.664Z,5.50
2023-01-11T12:06:02.397Z,5.37
2023-01-11T12:08:35.988Z,4.97
2023-01-11T12:11:07.167Z,4.90
2023-01-11T12:13:40.515Z,4.60
2023-01-11T12:16:20.683Z,5.10
2023-01-11T12:18:48.708Z,6.07
2023-01-11T12:21:23.486Z,5.07
2023-01-11T12:24:12.848Z,3.80
2023-01-11T12:27:36.319Z,4.50
2023-01-11T12:30:22.050Z,5.03
2023-01-11T12:33:06.275Z,4.80
2023-01-11T12:35:52.848Z,6.00
2023-01-11T12:38:25.837Z,4.97
2023-01-11T12:41:21.569Z,4.60
2023-01-11T12:44:10.092Z,4.77
2023-01-11T12:47:04.393Z,7.10
2023-01-11T12:49:50.273Z,5.37
2023-01-11T12:52:49.556Z,5.33
2023-01-11T12:55:44.130Z,10.18
2023-01-11T12:58:22.986Z,6.13
2023-01-11T13:01:13.137Z,7.43
2023-01-11T13:04:15.234Z,6.00
2023-01-11T13:07:07.565Z,6.43
2023-01-11T13:09:48.507Z,6.13
2023-01-11T13:12:16.653Z,5.73
2023-01-11T13:15:08.763Z,4.17
2023-01-11T13:17:52.465Z,5.63
2023-01-11T13:20:59.195Z,7.60
2023-01-11T13:23:33.319Z,7.33
2023-01-11T13:26:24.706Z,8.27
2023-01-11T13:28:59.979Z,8.33
2023-01-11T13:31:29.403Z,7.20
2023-01-11T13:34:32.935Z,7.00
2023-01-11T13:37:12.933Z,6.23
2023-01-11T13:40:02.043Z,5.27
2023-01-11T13:42:41.193Z,5.30
2023-01-11T13:45:30.527Z,9.93
2023-01-11T13:48:03.302Z,8.03
2023-01-11T13:50:42.207Z,7.33
2023-01-11T13:53:28.329Z,8.60
2023-01-11T13:56:10.507Z,7.53
2023-01-11T13:58:55.678Z,7.53
2023-01-11T14:01:29.955Z,7.30
2023-01-11T14:04:08.564Z,8.07
2023-01-11T14:06:42.568Z,8.50
2023-01-11T14:09:44.729Z,6.23
2023-01-11T14:12:27.416Z,6.93
2023-01-11T14:15:14.991Z,10.47
2023-01-11T14:18:05.982Z,10.13
2023-01-11T14:20:42.762Z,11.47
2023-01-11T14:23:31.631Z,7.73
2023-01-11T14:26:37.201Z,8.15
2023-01-11T14:29:28.614Z,7.33
2023-01-11T14:32:03.070Z,10.47
2023-01-11T14:35:04.135Z,9.73
2023-01-11T14:37:40.899Z,11.13
2023-01-11T14:40:14.748Z,13.30
2023-01-11T14:43:20.275Z,12.80
2023-01-11T14:46:02.275Z,13.83
2023-01-11T14:48:34.509Z,15.07
2023-01-11T14:51:14.085Z,13.77
2023-01-11T14:53:50.701Z,15.57
2023-01-11T14:56:42.493Z,17.27
2023-01-11T14:59:45.810Z,15.87
2023-01-11T15:02:23.462Z,10.83
2023-01-11T15:04:57.122Z,13.80
2023-01-11T15:07:44.521Z,19.53
2023-01-11T15:10:30.421Z,18.63
2023-01-11T15:12:58.531Z,15.23
2023-01-11T15:15:47.858Z,13.57
2023-01-11T15:18:23.026Z,17.02
2023-01-11T15:20:52.716Z,14.87
2023-01-11T15:25:49.713Z,11.67
2023-01-11T15:28:44.757Z,10.07
2023-01-11T15:31:33.909Z,8.03
2023-01-11T15:34:22.133Z,6.43
2023-01-11T15:37:02.547Z,6.70
2023-01-11T15:39:49.104Z,8.07
2023-01-11T15:42:16.644Z,6.90
2023-01-11T15:45:22.255Z,8.87
2023-01-11T15:48:14.070Z,8.53
2023-01-11T15:51:19.219Z,6.53
2023-01-11T15:53:58.665Z,5.57
2023-01-11T15:56:44.723Z,13.47
2023-01-11T15:59:41.315Z,6.53
2023-01-11T16:02:14.964Z,10.37
2023-01-11T16:04:59.219Z,12.93
2023-01-11T16:07:43.680Z,9.03
2023-01-11T16:10:38.993Z,8.33
2023-01-11T16:13:24.653Z,13.50
2023-01-11T16:16:11.019Z,15.30
2023-01-11T16:18:44.234Z,12.53
2023-01-11T16:21:19.716Z,12.70
2023-01-11T16:23:47.547Z,18.20
2023-01-11T16:26:20.575Z,17.60
2023-01-11T16:28:54.637Z,22.57
2023-01-11T16:31:22.389Z,22.37
2023-01-11T16:33:50.160Z,12.87
2023-01-11T16:36:23.326Z,11.00
2023-01-11T16:38:50.999Z,13.47
2023-01-11T16:41:19.830Z,11.67
2023-01-11T16:43:58.682Z,15.02
2023-01-11T16:49:17.180Z,16.90
2023-01-11T16:51:45.658Z,18.67
2023-01-11T16:54:28.972Z,18.43
2023-01-11T16:56:58.604Z,20.67
2023-01-11T17:01:59.780Z,15.60
2023-01-11T17:04:48.459Z,13.17
2023-01-11T17:07:23.763Z,14.52
2023-01-11T17:09:51.366Z,16.20
2023-01-11T17:12:25.099Z,14.90
2023-01-11T17:15:14.020Z,16.40
2023-01-11T17:20:25.907Z,17.43
2023-01-11T17:22:54.085Z,21.17
2023-01-11T17:25:29.588Z,22.23
2023-01-11T17:28:14.209Z,21.10
2023-01-11T17:30:45.879Z,16.92
2023-01-11T17:33:33.576Z,16.40
2023-01-11T17:36:01.965Z,29.20
2023-01-11T17:38:30.586Z,19.02
2023-01-11T17:40:58.924Z,22.73
2023-01-11T17:43:48.806Z,20.33
2023-01-11T17:46:24.520Z,21.47
2023-01-11T17:48:55.135Z,22.60
2023-01-11T17:51:25.521Z,37.83
2023-01-11T17:53:53.533Z,27.53
2023-01-11T17:56:33.298Z,32.63
2023-01-11T17:59:19.217Z,26.83
2023-01-11T18:01:49.403Z,22.67
2023-01-11T18:04:19.646Z,16.77
2023-01-11T18:06:48.780Z,15.00
2023-01-11T18:09:26.631Z,17.58
2023-01-11T18:12:04.647Z,19.50
2023-01-11T18:14:41.401Z,16.07
2023-01-11T18:17:35.245Z,22.23
2023-01-11T18:20:15.092Z,25.07
2023-01-11T18:23:04.715Z,23.73
2023-01-11T18:25:35.216Z,17.93
2023-01-11T18:28:12.311Z,22.87
2023-01-11T18:30:54.917Z,45.40
2023-01-11T18:33:30.554Z,33.90
2023-01-11T18:36:02.079Z,48.07
2023-01-11T18:38:35.272Z,34.70
2023-01-11T18:41:28.097Z,33.23
2023-01-11T18:43:56.521Z,35.17
2023-01-11T18:46:24.226Z,37.40
2023-01-11T18:48:52.214Z,31.93
2023-01-11T18:51:28.206Z,42.80
2023-01-11T18:53:55.710Z,37.67
2023-01-11T18:56:23.361Z,20.07
2023-01-11T19:01:19.022Z,31.40
2023-01-11T19:03:47.215Z,34.58
2023-01-11T19:06:16.450Z,37.53
2023-01-11T19:08:43.794Z,38.80
2023-01-11T19:11:14.030Z,39.27
2023-01-11T19:13:41.438Z,34.93
2023-01-11T19:16:09.116Z,26.87
2023-01-11T19:18:36.845Z,24.20
2023-01-11T19:21:07.247Z,23.40
2023-01-11T19:23:36.113Z,42.97
2023-01-11T19:26:05.115Z,51.30
2023-01-11T19:28:33.216Z,60.40
2023-01-11T19:31:00.850Z,55.53
2023-01-11T19:33:28.534Z,37.27
2023-01-11T19:35:56.592Z,35.17
2023-01-11T19:38:24.377Z,31.23
2023-01-11T19:40:53.617Z,26.13
2023-01-11T19:43:21.339Z,25.30
2023-01-11T19:45:56.546Z,28.43
2023-01-11T19:50:52.306Z,26.23
2023-01-11T19:53:20.003Z,24.13
2023-01-11T19:55:47.809Z,25.20
2023-01-11T19:58:15.185Z,23.27
2023-01-11T20:00:42.602Z,21.13
2023-01-11T20:03:10.290Z,21.80
2023-01-11T20:05:37.845Z,24.73
2023-01-11T20:08:05.341Z,24.27
2023-01-11T20:10:34.323Z,21.60
2023-01-11T20:13:01.769Z,36.67
2023-01-11T20:15:29.205Z,33.80
2023-01-11T20:17:56.981Z,34.80
2023-01-11T20:20:24.374Z,31.00
2023-01-11T20:22:51.727Z,29.83
2023-01-11T20:25:19.811Z,17.07
2023-01-11T20:27:47.182Z,16.60
2023-01-11T20:30:14.841Z,17.63
2023-01-11T20:32:42.698Z,16.53
2023-01-11T20:35:10.966Z,13.63
2023-01-11T20:37:38.664Z,15.77
2023-01-11T20:40:07.115Z,14.10
2023-01-11T20:42:34.717Z,12.17
2023-01-11T20:45:02.168Z,15.03
2023-01-11T20:47:29.981Z,17.30
2023-01-11T20:49:57.634Z,12.97
2023-01-11T20:52:25.088Z,11.70
2023-01-11T20:54:52.845Z,14.40
2023-01-11T20:57:20.124Z,14.73
2023-01-11T20:59:47.642Z,14.53
2023-01-11T21:02:15.337Z,11.93
2023-01-11T21:04:42.765Z,11.67
2023-01-11T21:07:10.195Z,14.23
2023-01-11T21:09:37.927Z,12.90
2023-01-11T21:12:05.663Z,12.00
2023-01-11T21:14:33.252Z,11.63
2023-01-11T21:17:01.072Z,11.23
2023-01-11T21:19:28.472Z,12.83
2023-01-11T21:21:55.917Z,11.63
2023-01-11T21:24:23.686Z,11.83
2023-01-11T21:26:51.071Z,11.30
2023-01-11T21:29:18.527Z,13.97
2023-01-11T21:31:46.469Z,14.17
2023-01-11T21:34:14.920Z,9.57
2023-01-11T21:36:44.165Z,10.67
2023-01-11T21:39:14.497Z,10.93
2023-01-11T21:41:58.332Z,13.47
2023-01-11T21:44:34.608Z,14.23
2023-01-11T21:47:04.147Z,18.97
2023-01-11T21:49:33.256Z,14.87
2023-01-11T21:52:00.980Z,11.70
2023-01-11T21:54:28.333Z,13.90
2023-01-11T21:56:56.270Z,15.77
2023-01-11T21:59:23.836Z,13.03
2023-01-11T22:01:51.391Z,12.87
2023-01-11T22:04:20.570Z,11.10
2023-01-11T22:06:51.601Z,11.63
2023-01-11T22:09:20.552Z,9.87
2023-01-11T22:11:47.876Z,11.50
2023-01-11T22:14:15.326Z,11.20
2023-01-11T22:16:43.203Z,9.73
2023-01-11T22:19:10.954Z,10.67
2023-01-11T22:21:38.513Z,10.03
2023-01-11T22:24:10.998Z,9.82
2023-01-11T22:26:39.412Z,8.93
2023-01-11T22:29:12.001Z,9.63
2023-01-11T22:31:42.233Z,9.80
2023-01-11T22:34:11.530Z,10.60
2023-01-11T22:39:29.781Z,10.43
2023-01-11T22:41:57.786Z,12.03
2023-01-11T22:44:25.177Z,13.70
2023-01-11T22:46:52.611Z,12.83
2023-01-11T22:49:20.312Z,11.57
2023-01-11T22:51:47.949Z,10.80
2023-01-11T22:54:15.561Z,9.30
2023-01-11T22:56:43.267Z,9.50
2023-01-11T22:59:11.342Z,10.30
2023-01-11T23:01:40.640Z,11.83
2023-01-11T23:04:13.127Z,10.97
2023-01-11T23:06:42.237Z,9.37
2023-01-11T23:12:01.749Z,9.67
2023-01-11T23:14:33.849Z,10.93
2023-01-11T23:17:07.194Z,9.70
2023-01-11T23:19:40.755Z,10.93
2023-01-11T23:22:09.992Z,10.77
2023-01-11T23:24:38.078Z,10.77
2023-01-11T23:27:05.687Z,10.30
2023-01-11T23:29:33.064Z,10.13
2023-01-11T23:32:00.733Z,9.93
2023-01-11T23:34:28.070Z,12.57
2023-01-11T23:36:55.843Z,11.60
2023-01-11T23:39:23.970Z,10.80
2023-01-11T23:42:11.033Z,11.65
2023-01-11T23:44:38.638Z,12.40
2023-01-11T23:47:25.305Z,10.43
2023-01-11T23:49:55.429Z,12.73
2023-01-11T23:52:26.021Z,11.63
2023-01-11T23:54:54.368Z,12.60
2023-01-11T23:57:22.673Z,12.87
2023-01-11T23:59:50.075Z,10.00
